Terminal Aerodrome Forecast
Issued by NWS

Home | Current Version | Previous Version | Graphics & Text | Print | Product List | Glossary Off
Versions: 1 2 3 4 5 6 7 8 9 10 11 12 13

000
FTUS43 KBIS 210629 AAA
TAFDIK
TAF AMD
KDIK 210629Z 2106/2206 15014KT P6SM VCTS BKN100CB BKN120
      TEMPO 2106/2108 -TSRA OVC090CB
     FM211200 19007KT P6SM SCT070 BKN200
     FM211500 25008KT P6SM BKN200
     FM211900 34012KT P6SM FEW200
     FM220200 36007KT P6SM FEW200=

USA.gov is the U.S. government's official web portal to all federal, state and local government web resources and services.